createdAt,value
2017-10-29T00:01:18.814Z,1.67
2017-10-29T00:03:47.071Z,1.70
2017-10-29T00:06:15.466Z,1.53
2017-10-29T00:08:43.730Z,1.40
2017-10-29T00:11:12.010Z,1.67
2017-10-29T00:13:40.361Z,2.20
2017-10-29T00:16:09.423Z,1.50
2017-10-29T00:18:37.673Z,1.70
2017-10-29T00:21:05.963Z,1.17
2017-10-29T00:23:34.214Z,1.50
2017-10-29T00:26:02.494Z,1.30
2017-10-29T00:28:30.830Z,1.80
2017-10-29T00:30:59.846Z,1.87
2017-10-29T00:33:28.117Z,1.20
2017-10-29T00:35:57.180Z,1.63
2017-10-29T00:38:25.427Z,1.40
2017-10-29T00:40:53.700Z,1.80
2017-10-29T00:43:22.029Z,1.10
2017-10-29T00:45:51.024Z,1.67
2017-10-29T00:48:19.314Z,1.20
2017-10-29T00:50:48.005Z,1.47
2017-10-29T00:53:16.228Z,1.30
2017-10-29T00:55:44.493Z,1.53
2017-10-29T00:58:12.792Z,1.93
2017-10-29T01:00:41.029Z,1.80
2017-10-29T01:03:09.311Z,1.60
2017-10-29T01:05:37.609Z,1.70
2017-10-29T01:08:05.852Z,1.70
2017-10-29T01:10:34.092Z,2.10
2017-10-29T01:13:02.441Z,1.60
2017-10-29T01:15:30.662Z,1.67
2017-10-29T01:17:58.886Z,1.80
2017-10-29T01:20:27.174Z,1.80
2017-10-29T01:22:55.413Z,1.63
2017-10-29T01:25:23.647Z,1.47
2017-10-29T01:27:51.934Z,1.63
2017-10-29T01:30:20.267Z,1.40
2017-10-29T01:32:48.503Z,1.30
2017-10-29T01:35:17.284Z,1.30
2017-10-29T01:37:45.571Z,1.47
2017-10-29T01:40:13.802Z,1.27
2017-10-29T01:42:42.888Z,1.50
2017-10-29T01:45:11.895Z,1.50
2017-10-29T01:47:40.139Z,1.47
2017-10-29T01:50:08.442Z,1.50
2017-10-29T01:52:36.670Z,1.37
2017-10-29T01:55:04.952Z,1.80
2017-10-29T01:57:33.251Z,1.87
2017-10-29T02:00:01.464Z,1.10
2017-10-29T02:02:29.696Z,1.10
2017-10-29T02:04:58.912Z,1.13
2017-10-29T02:07:27.888Z,1.57
2017-10-29T02:09:56.128Z,1.10
2017-10-29T02:12:24.432Z,1.17
2017-10-29T02:14:52.694Z,1.10
2017-10-29T02:17:20.919Z,1.00
2017-10-29T02:19:49.232Z,1.43
2017-10-29T02:22:17.461Z,1.20
2017-10-29T02:24:46.456Z,1.00
2017-10-29T02:27:14.763Z,1.40
2017-10-29T02:29:43.036Z,1.40
2017-10-29T02:32:11.266Z,1.20
2017-10-29T02:34:39.933Z,1.00
2017-10-29T02:37:08.216Z,1.33
2017-10-29T02:39:36.517Z,1.30
2017-10-29T02:42:05.561Z,1.10
2017-10-29T02:44:33.860Z,1.27
2017-10-29T02:47:02.088Z,1.40
2017-10-29T02:49:30.409Z,0.90
2017-10-29T02:51:58.663Z,0.97
2017-10-29T02:54:26.922Z,0.90
2017-10-29T02:56:55.194Z,1.43
2017-10-29T02:59:23.456Z,1.50
2017-10-29T03:01:51.704Z,1.47
2017-10-29T03:04:21.165Z,1.10
2017-10-29T03:06:49.386Z,1.50
2017-10-29T03:09:18.372Z,1.10
2017-10-29T03:11:47.065Z,1.10
2017-10-29T03:14:16.062Z,1.30
2017-10-29T03:16:45.062Z,1.37
2017-10-29T03:19:13.349Z,1.20
2017-10-29T03:21:41.590Z,0.97
2017-10-29T03:24:09.807Z,1.50
2017-10-29T03:26:38.130Z,1.10
2017-10-29T03:29:06.361Z,1.20
2017-10-29T03:31:34.896Z,1.17
2017-10-29T03:34:03.111Z,1.40
2017-10-29T03:36:31.351Z,1.50
2017-10-29T03:39:00.035Z,1.40
2017-10-29T03:41:29.068Z,0.90
2017-10-29T03:43:57.312Z,0.97
2017-10-29T03:46:26.336Z,1.10
2017-10-29T03:48:54.640Z,1.00
2017-10-29T03:51:22.876Z,1.10
2017-10-29T03:53:51.109Z,1.07
2017-10-29T03:56:19.401Z,1.13
2017-10-29T03:58:47.648Z,1.30
2017-10-29T04:01:15.859Z,0.90
2017-10-29T04:03:44.545Z,0.80
2017-10-29T04:06:13.534Z,1.00
2017-10-29T04:08:42.509Z,0.87
2017-10-29T04:11:10.793Z,1.00
2017-10-29T04:13:39.015Z,0.90
2017-10-29T04:16:07.288Z,0.83
2017-10-29T04:18:36.360Z,1.00
2017-10-29T04:21:04.594Z,0.97
2017-10-29T04:23:32.816Z,0.80
2017-10-29T04:26:01.149Z,0.80
2017-10-29T04:28:29.393Z,0.80
2017-10-29T04:30:57.610Z,1.00
2017-10-29T04:33:25.904Z,0.90
2017-10-29T04:35:54.147Z,1.23
2017-10-29T04:38:22.416Z,0.80
2017-10-29T04:40:50.748Z,0.90
2017-10-29T04:43:19.005Z,0.80
2017-10-29T04:45:48.017Z,1.00
2017-10-29T04:48:16.321Z,0.80
2017-10-29T04:50:44.570Z,0.90
2017-10-29T04:53:12.814Z,0.80
2017-10-29T04:55:41.120Z,1.00
2017-10-29T04:58:09.384Z,0.90
2017-10-29T05:00:37.653Z,1.10
2017-10-29T05:03:05.959Z,1.00
2017-10-29T05:05:34.190Z,0.90
2017-10-29T05:08:02.481Z,0.80
2017-10-29T05:10:30.800Z,1.10
2017-10-29T05:12:59.033Z,0.90
2017-10-29T05:15:27.387Z,1.10
2017-10-29T05:17:55.608Z,1.03
2017-10-29T05:20:23.908Z,1.57
2017-10-29T05:22:52.214Z,1.00
2017-10-29T05:25:20.430Z,0.93
2017-10-29T05:27:48.671Z,1.00
2017-10-29T05:30:16.961Z,1.40
2017-10-29T05:32:45.971Z,1.03
2017-10-29T05:35:15.435Z,0.90
2017-10-29T05:37:43.693Z,1.00
2017-10-29T05:40:11.938Z,1.27
2017-10-29T05:42:40.201Z,1.50
2017-10-29T05:45:08.512Z,7.97
2017-10-29T05:47:36.884Z,7.63
2017-10-29T05:50:05.210Z,1.83
2017-10-29T05:52:34.234Z,0.97
2017-10-29T05:55:02.461Z,2.80
2017-10-29T05:57:30.738Z,0.80
2017-10-29T05:59:59.759Z,0.93
2017-10-29T06:02:28.059Z,0.80
2017-10-29T06:04:56.306Z,0.90
2017-10-29T06:07:24.550Z,1.00
2017-10-29T06:09:52.895Z,1.30
2017-10-29T06:12:21.177Z,1.20
2017-10-29T06:14:49.460Z,1.80
2017-10-29T06:17:17.757Z,2.43
2017-10-29T06:19:46.011Z,3.47
2017-10-29T06:22:14.388Z,3.80
2017-10-29T06:24:42.691Z,3.27
2017-10-29T06:27:10.984Z,7.40
2017-10-29T06:29:40.075Z,9.30
2017-10-29T06:32:09.173Z,4.50
2017-10-29T06:34:38.244Z,7.67
2017-10-29T06:37:06.524Z,5.60
2017-10-29T06:39:34.825Z,1.30
2017-10-29T06:42:03.946Z,2.17
2017-10-29T06:44:35.180Z,1.50
2017-10-29T06:47:03.495Z,4.70
2017-10-29T06:49:31.758Z,1.83
2017-10-29T06:52:00.041Z,1.77
2017-10-29T06:54:28.349Z,7.87
2017-10-29T06:56:56.646Z,3.80
2017-10-29T06:59:25.745Z,1.73
2017-10-29T07:01:54.511Z,3.33
2017-10-29T07:04:23.958Z,2.57
2017-10-29T07:06:52.333Z,3.53
2017-10-29T07:09:20.671Z,2.97
2017-10-29T07:11:48.967Z,1.50
2017-10-29T07:14:17.989Z,2.50
2017-10-29T07:16:46.336Z,1.97
2017-10-29T07:19:15.615Z,2.00
2017-10-29T07:21:44.222Z,5.80
2017-10-29T07:24:12.569Z,2.60
2017-10-29T07:26:40.867Z,2.07
2017-10-29T07:29:09.907Z,2.00
2017-10-29T07:31:38.277Z,1.83
2017-10-29T07:34:09.289Z,3.20
2017-10-29T07:36:38.194Z,2.93
2017-10-29T07:39:09.225Z,2.33
2017-10-29T07:41:38.828Z,3.97
2017-10-29T07:44:07.067Z,3.10
2017-10-29T07:46:35.338Z,2.50
2017-10-29T07:49:03.620Z,3.43
2017-10-29T07:51:31.932Z,2.30
2017-10-29T07:54:00.189Z,2.30
2017-10-29T07:56:28.525Z,2.97
2017-10-29T07:58:57.564Z,3.03
2017-10-29T08:01:26.573Z,2.40
2017-10-29T08:03:55.830Z,2.20
2017-10-29T08:06:24.137Z,2.60
2017-10-29T08:08:52.417Z,3.80
2017-10-29T08:11:20.715Z,3.77
2017-10-29T08:13:48.977Z,3.20
2017-10-29T08:16:17.262Z,5.30
2017-10-29T08:18:45.545Z,3.53
2017-10-29T08:21:13.776Z,2.83
2017-10-29T08:23:42.025Z,3.13
2017-10-29T08:26:10.335Z,3.03
2017-10-29T08:28:39.367Z,3.27
2017-10-29T08:31:07.611Z,4.20
2017-10-29T08:33:36.115Z,4.00
2017-10-29T08:36:04.600Z,3.93
2017-10-29T08:38:34.592Z,4.57
2017-10-29T08:41:03.704Z,3.87
2017-10-29T08:43:32.019Z,3.23
2017-10-29T08:46:00.284Z,4.27
2017-10-29T08:48:28.518Z,4.27
2017-10-29T08:50:56.861Z,7.60
2017-10-29T08:53:25.114Z,6.60
2017-10-29T08:55:53.380Z,3.37
2017-10-29T08:58:21.695Z,4.70
2017-10-29T09:00:49.995Z,2.77
2017-10-29T09:03:18.342Z,3.00
2017-10-29T09:05:47.128Z,3.43
2017-10-29T09:08:15.386Z,2.53
2017-10-29T09:10:43.612Z,3.60
2017-10-29T09:13:11.924Z,3.10
2017-10-29T09:15:40.193Z,4.70
2017-10-29T09:18:08.520Z,2.20
2017-10-29T09:20:36.794Z,6.43
2017-10-29T09:23:05.107Z,1.90
2017-10-29T09:25:33.453Z,3.03
2017-10-29T09:28:02.443Z,2.00
2017-10-29T09:30:30.709Z,6.30
2017-10-29T09:32:59.483Z,8.33
2017-10-29T09:35:27.833Z,3.47
2017-10-29T09:37:56.230Z,2.37
2017-10-29T09:40:24.987Z,1.67
2017-10-29T09:42:53.548Z,2.43
2017-10-29T09:45:25.626Z,3.20
2017-10-29T09:47:53.888Z,1.77
2017-10-29T09:50:24.270Z,2.60
2017-10-29T09:52:52.499Z,3.83
2017-10-29T09:55:22.616Z,2.47
2017-10-29T09:57:51.024Z,1.90
2017-10-29T10:00:19.336Z,2.17
2017-10-29T10:02:47.581Z,3.00
2017-10-29T10:05:15.891Z,2.20
2017-10-29T10:07:44.237Z,1.70
2017-10-29T10:10:12.847Z,2.57
2017-10-29T10:12:41.404Z,2.97
2017-10-29T10:15:10.761Z,2.20
2017-10-29T10:17:39.023Z,3.60
2017-10-29T10:20:08.042Z,2.43
2017-10-29T10:22:36.593Z,3.33
2017-10-29T10:25:04.952Z,2.53
2017-10-29T10:27:33.947Z,2.90
2017-10-29T10:30:02.186Z,2.50
2017-10-29T10:32:31.311Z,3.00
2017-10-29T10:34:59.541Z,3.60
2017-10-29T10:37:27.912Z,2.30
2017-10-29T10:39:56.245Z,2.77
2017-10-29T10:42:26.741Z,2.83
2017-10-29T10:44:54.975Z,2.23
2017-10-29T10:47:23.250Z,2.00
2017-10-29T10:49:52.252Z,1.97
2017-10-29T10:52:20.518Z,2.40
2017-10-29T10:54:49.573Z,2.43
2017-10-29T10:57:17.821Z,2.73
2017-10-29T10:59:46.091Z,2.90
2017-10-29T11:02:14.404Z,2.30
2017-10-29T11:04:42.644Z,1.70
2017-10-29T11:07:10.898Z,2.10
2017-10-29T11:09:39.198Z,2.90
2017-10-29T11:12:07.457Z,2.33
2017-10-29T11:14:35.697Z,2.73
2017-10-29T11:17:04.004Z,2.30
2017-10-29T11:19:32.246Z,2.47
2017-10-29T11:22:00.479Z,2.17
2017-10-29T11:24:28.822Z,4.10
2017-10-29T11:26:57.862Z,2.43
2017-10-29T11:29:26.133Z,3.60
2017-10-29T11:31:54.468Z,3.17
2017-10-29T11:34:23.492Z,3.40
2017-10-29T11:36:51.725Z,4.43
2017-10-29T11:39:20.010Z,5.00
2017-10-29T11:41:49.025Z,3.70
2017-10-29T11:44:17.488Z,2.87
2017-10-29T11:46:46.538Z,3.80
2017-10-29T11:49:14.759Z,5.17
2017-10-29T11:51:43.029Z,3.77
2017-10-29T11:54:12.065Z,2.93
2017-10-29T11:56:40.298Z,2.37
2017-10-29T11:59:08.559Z,2.63
2017-10-29T12:01:36.834Z,2.60
2017-10-29T12:04:05.839Z,3.00
2017-10-29T12:06:34.095Z,1.73
2017-10-29T12:09:02.360Z,1.67
2017-10-29T12:11:30.602Z,2.40
2017-10-29T12:13:58.850Z,2.27
2017-10-29T12:16:27.149Z,1.73
2017-10-29T12:18:55.374Z,1.77
2017-10-29T12:21:23.595Z,1.70
2017-10-29T12:23:51.920Z,2.70
2017-10-29T12:26:20.168Z,1.97
2017-10-29T12:28:48.410Z,1.90
2017-10-29T12:31:16.682Z,1.67
2017-10-29T12:33:44.914Z,2.07
2017-10-29T12:36:13.177Z,1.40
2017-10-29T12:38:41.957Z,2.00
2017-10-29T12:41:10.200Z,2.40
2017-10-29T12:43:38.428Z,2.07
2017-10-29T12:46:06.731Z,1.70
2017-10-29T12:48:35.752Z,1.90
2017-10-29T12:51:04.020Z,1.63
2017-10-29T12:53:32.276Z,2.67
2017-10-29T12:56:00.597Z,2.40
2017-10-29T12:58:28.878Z,1.97
2017-10-29T13:00:57.103Z,1.77
2017-10-29T13:03:26.112Z,1.80
2017-10-29T13:05:54.769Z,1.80
2017-10-29T13:08:23.786Z,2.83
2017-10-29T13:10:52.053Z,2.10
2017-10-29T13:13:21.450Z,2.13
2017-10-29T13:15:50.481Z,2.00
2017-10-29T13:18:19.634Z,2.07
2017-10-29T13:20:48.666Z,2.67
2017-10-29T13:23:16.918Z,2.30
2017-10-29T13:25:45.246Z,2.10
2017-10-29T13:28:13.489Z,1.60
2017-10-29T13:30:41.740Z,1.77
2017-10-29T13:33:10.097Z,1.70
2017-10-29T13:35:38.332Z,2.37
2017-10-29T13:38:06.576Z,2.37
2017-10-29T13:40:34.840Z,2.60
2017-10-29T13:43:03.891Z,2.33
2017-10-29T13:45:32.132Z,2.77
2017-10-29T13:48:00.803Z,2.20
2017-10-29T13:50:29.098Z,3.30
2017-10-29T13:52:57.322Z,2.50
2017-10-29T13:55:26.431Z,2.27
2017-10-29T13:57:55.441Z,1.60
2017-10-29T14:00:23.707Z,2.97
2017-10-29T14:02:52.752Z,3.03
2017-10-29T14:05:20.987Z,3.30
2017-10-29T14:07:49.269Z,3.23
2017-10-29T14:10:17.522Z,3.77
2017-10-29T14:12:45.805Z,4.10
2017-10-29T14:15:14.064Z,3.30
2017-10-29T14:17:42.386Z,3.23
2017-10-29T14:20:10.630Z,4.20
2017-10-29T14:22:38.870Z,3.20
2017-10-29T14:25:08.263Z,3.07
2017-10-29T14:27:36.551Z,3.20
2017-10-29T14:30:04.876Z,3.37
2017-10-29T14:32:33.683Z,2.50
2017-10-29T14:35:02.695Z,3.73
2017-10-29T14:37:30.951Z,2.90
2017-10-29T14:39:59.346Z,3.07
2017-10-29T14:42:27.576Z,3.77
2017-10-29T14:44:56.582Z,4.57
2017-10-29T14:47:24.885Z,3.23
2017-10-29T14:49:53.109Z,3.33
2017-10-29T14:52:22.096Z,4.20
2017-10-29T14:54:51.140Z,3.27
2017-10-29T14:57:19.363Z,3.03
2017-10-29T14:59:48.026Z,3.60
2017-10-29T15:02:16.297Z,4.03
2017-10-29T15:04:44.536Z,3.53
2017-10-29T15:07:12.824Z,2.90
2017-10-29T15:09:41.048Z,3.07
2017-10-29T15:12:09.378Z,3.17
2017-10-29T15:14:37.670Z,3.10
2017-10-29T15:17:05.886Z,3.67
2017-10-29T15:19:34.883Z,4.10
2017-10-29T15:22:03.966Z,11.77
2017-10-29T15:24:33.223Z,3.00
2017-10-29T15:27:01.475Z,3.97
2017-10-29T15:29:29.749Z,2.97
2017-10-29T15:31:58.010Z,2.30
2017-10-29T15:34:26.372Z,2.60
2017-10-29T15:36:55.357Z,3.93
2017-10-29T15:39:23.602Z,3.47
2017-10-29T15:41:52.271Z,6.00
2017-10-29T15:44:20.512Z,3.37
2017-10-29T15:46:48.776Z,4.00
2017-10-29T15:49:17.871Z,4.50
2017-10-29T15:51:47.297Z,4.10
2017-10-29T15:54:16.235Z,6.00
2017-10-29T15:56:44.551Z,3.90
2017-10-29T15:59:12.928Z,8.07
2017-10-29T16:01:41.450Z,4.27
2017-10-29T16:04:09.740Z,5.77
2017-10-29T16:06:38.884Z,5.20
2017-10-29T16:09:07.134Z,6.27
2017-10-29T16:11:36.297Z,3.50
2017-10-29T16:14:04.627Z,3.90
2017-10-29T16:16:32.861Z,3.30
2017-10-29T16:19:01.132Z,4.40
2017-10-29T16:21:29.443Z,2.70
2017-10-29T16:23:58.490Z,4.20
2017-10-29T16:26:26.823Z,3.13
2017-10-29T16:28:55.843Z,3.50
2017-10-29T16:31:24.069Z,4.73
2017-10-29T16:33:52.348Z,2.50
2017-10-29T16:36:20.599Z,2.93
2017-10-29T16:38:48.833Z,4.50
2017-10-29T16:41:17.521Z,1.93
2017-10-29T16:43:45.788Z,3.13
2017-10-29T16:46:14.020Z,7.47
2017-10-29T16:48:42.750Z,3.90
2017-10-29T16:51:10.997Z,4.67
2017-10-29T16:53:39.297Z,4.27
2017-10-29T16:56:08.019Z,3.67
2017-10-29T16:58:36.378Z,2.83
2017-10-29T17:01:04.948Z,3.20
2017-10-29T17:03:33.618Z,5.33
2017-10-29T17:06:02.608Z,4.00
2017-10-29T17:08:30.850Z,3.40
2017-10-29T17:10:59.129Z,3.07
2017-10-29T17:13:27.414Z,3.87
2017-10-29T17:15:55.655Z,3.17
2017-10-29T17:18:23.894Z,1.90
2017-10-29T17:20:52.960Z,1.80
2017-10-29T17:23:21.200Z,2.60
2017-10-29T17:25:49.437Z,2.47
2017-10-29T17:28:18.881Z,2.43
2017-10-29T17:30:47.139Z,2.80
2017-10-29T17:33:15.457Z,2.10
2017-10-29T17:35:43.796Z,2.63
2017-10-29T17:38:12.062Z,3.70
2017-10-29T17:40:40.303Z,7.23
2017-10-29T17:43:09.160Z,7.07
2017-10-29T17:45:37.389Z,6.10
2017-10-29T17:48:05.638Z,4.40
2017-10-29T17:50:34.007Z,5.13
2017-10-29T17:53:02.315Z,6.27
2017-10-29T17:55:30.653Z,2.20
2017-10-29T17:57:58.947Z,2.80
2017-10-29T18:00:27.956Z,2.83
2017-10-29T18:02:56.981Z,2.90
2017-10-29T18:05:25.337Z,1.93
2017-10-29T18:07:53.606Z,2.00
2017-10-29T18:10:22.638Z,2.10
2017-10-29T18:12:50.962Z,2.43
2017-10-29T18:15:19.242Z,1.97
2017-10-29T18:17:48.282Z,2.40
2017-10-29T18:20:16.569Z,2.60
2017-10-29T18:22:44.802Z,2.40
2017-10-29T18:25:13.041Z,2.83
2017-10-29T18:27:41.728Z,1.77
2017-10-29T18:30:09.996Z,3.23
2017-10-29T18:32:39.059Z,2.40
2017-10-29T18:35:07.380Z,2.20
2017-10-29T18:37:35.646Z,2.63
2017-10-29T18:40:03.946Z,2.23
2017-10-29T18:42:33.110Z,2.70
2017-10-29T18:45:01.426Z,3.00
2017-10-29T18:47:29.679Z,1.83
2017-10-29T18:49:58.013Z,2.80
2017-10-29T18:52:26.516Z,1.77
2017-10-29T18:54:54.818Z,1.77
2017-10-29T18:57:23.509Z,1.67
2017-10-29T18:59:51.793Z,2.90
2017-10-29T19:02:20.849Z,2.00
2017-10-29T19:04:49.183Z,2.40
2017-10-29T19:07:17.534Z,1.97
2017-10-29T19:09:46.564Z,2.17
2017-10-29T19:12:14.937Z,2.17
2017-10-29T19:14:43.179Z,2.43
2017-10-29T19:17:12.202Z,2.83
2017-10-29T19:19:40.528Z,1.90
2017-10-29T19:22:09.583Z,2.47
2017-10-29T19:24:37.874Z,2.30
2017-10-29T19:27:07.026Z,2.30
2017-10-29T19:29:35.299Z,2.10
2017-10-29T19:32:04.388Z,2.17
2017-10-29T19:34:33.470Z,1.77
2017-10-29T19:37:01.711Z,3.07
2017-10-29T19:39:29.990Z,2.20
2017-10-29T19:41:58.768Z,2.53
2017-10-29T19:44:27.020Z,2.73
2017-10-29T19:46:56.010Z,4.00
2017-10-29T19:49:24.314Z,1.80
2017-10-29T19:51:52.583Z,2.20
2017-10-29T19:54:20.835Z,2.57
2017-10-29T19:56:49.901Z,1.50
2017-10-29T19:59:18.140Z,1.70
2017-10-29T20:01:46.396Z,1.63
2017-10-29T20:04:14.712Z,2.20
2017-10-29T20:06:42.972Z,1.60
2017-10-29T20:09:11.244Z,1.80
2017-10-29T20:11:39.558Z,1.90
2017-10-29T20:14:07.812Z,1.93
2017-10-29T20:16:36.104Z,1.67
2017-10-29T20:19:05.466Z,2.00
2017-10-29T20:21:33.721Z,2.60
2017-10-29T20:24:02.030Z,2.70
2017-10-29T20:26:30.304Z,1.80
2017-10-29T20:28:58.527Z,1.83
2017-10-29T20:31:27.561Z,2.07
2017-10-29T20:33:55.796Z,1.97
2017-10-29T20:36:24.904Z,2.10
2017-10-29T20:38:53.158Z,2.27
2017-10-29T20:41:21.409Z,2.17
2017-10-29T20:43:49.746Z,1.90
2017-10-29T20:46:17.976Z,2.80
2017-10-29T20:48:46.209Z,1.90
2017-10-29T20:51:14.567Z,2.50
2017-10-29T20:53:42.919Z,2.00
2017-10-29T20:56:11.912Z,1.77
2017-10-29T20:58:40.257Z,2.33
2017-10-29T21:01:08.520Z,2.67
2017-10-29T21:03:36.832Z,2.50
2017-10-29T21:06:05.159Z,2.63
2017-10-29T21:08:33.416Z,3.40
2017-10-29T21:11:01.658Z,3.77
2017-10-29T21:13:29.980Z,1.73
2017-10-29T21:15:58.224Z,2.67
2017-10-29T21:18:27.252Z,2.17
2017-10-29T21:20:55.591Z,2.03
2017-10-29T21:23:24.596Z,2.00
2017-10-29T21:25:52.847Z,2.50
2017-10-29T21:28:21.139Z,2.30
2017-10-29T21:30:50.137Z,2.43
2017-10-29T21:33:18.390Z,2.20
2017-10-29T21:35:46.673Z,1.97
2017-10-29T21:38:15.711Z,3.00
2017-10-29T21:40:43.971Z,2.43
2017-10-29T21:43:12.263Z,2.00
2017-10-29T21:45:40.519Z,2.37
2017-10-29T21:48:08.756Z,2.73
2017-10-29T21:50:37.062Z,2.20
2017-10-29T21:53:06.061Z,3.03
2017-10-29T21:55:34.306Z,3.00
2017-10-29T21:58:02.635Z,3.23
2017-10-29T22:00:30.855Z,2.70
2017-10-29T22:02:59.085Z,2.60
2017-10-29T22:05:27.376Z,2.37
2017-10-29T22:07:55.605Z,3.10
2017-10-29T22:10:24.595Z,2.47
2017-10-29T22:12:52.880Z,3.03
2017-10-29T22:15:21.144Z,2.10
2017-10-29T22:17:51.250Z,1.87
2017-10-29T22:20:19.475Z,2.40
2017-10-29T22:22:47.702Z,3.00
2017-10-29T22:25:16.076Z,1.50
2017-10-29T22:27:44.367Z,2.60
2017-10-29T22:30:13.357Z,1.90
2017-10-29T22:32:42.448Z,2.77
2017-10-29T22:35:11.533Z,2.20
2017-10-29T22:37:39.799Z,1.70
2017-10-29T22:40:08.016Z,2.87
2017-10-29T22:42:36.322Z,2.47
2017-10-29T22:45:04.562Z,4.23
2017-10-29T22:47:32.821Z,3.93
2017-10-29T22:50:01.883Z,3.40
2017-10-29T22:52:30.107Z,2.67
2017-10-29T22:54:58.333Z,2.50
2017-10-29T22:57:26.628Z,2.60
2017-10-29T22:59:54.846Z,2.70
2017-10-29T23:02:23.086Z,3.50
2017-10-29T23:05:10.011Z,2.27
2017-10-29T23:10:33.708Z,2.40
2017-10-29T23:13:01.975Z,2.20
2017-10-29T23:15:30.969Z,2.17
2017-10-29T23:17:59.289Z,2.27
2017-10-29T23:20:27.500Z,2.30
2017-10-29T23:22:55.732Z,2.47
2017-10-29T23:25:24.022Z,2.53
2017-10-29T23:27:52.250Z,2.40
2017-10-29T23:30:20.503Z,1.90
2017-10-29T23:32:48.811Z,1.70
2017-10-29T23:35:17.026Z,2.30
2017-10-29T23:37:45.243Z,2.30
2017-10-29T23:40:13.608Z,2.10
2017-10-29T23:42:41.903Z,2.00
2017-10-29T23:45:10.161Z,5.30
2017-10-29T23:47:39.320Z,15.50
2017-10-29T23:50:07.568Z,10.23
2017-10-29T23:52:35.798Z,4.83
2017-10-29T23:55:04.111Z,9.00
2017-10-29T23:57:32.379Z,4.57
